createdAt,value
2018-07-28T00:01:00.234Z,93.60
2018-07-28T00:03:27.395Z,93.50
2018-07-28T00:05:54.559Z,93.40
2018-07-28T00:08:21.727Z,93.20
2018-07-28T00:10:48.898Z,93.10
2018-07-28T00:13:16.049Z,93.30
2018-07-28T00:15:43.202Z,93.10
2018-07-28T00:18:10.376Z,93.20
2018-07-28T00:20:37.533Z,93.50
2018-07-28T00:23:04.820Z,94.00
2018-07-28T00:25:37.538Z,93.70
2018-07-28T00:28:05.486Z,93.70
2018-07-28T00:30:32.647Z,93.90
2018-07-28T00:32:59.782Z,94.50
2018-07-28T00:35:26.942Z,94.20
2018-07-28T00:37:54.110Z,94.20
2018-07-28T00:40:21.271Z,94.50
2018-07-28T00:42:48.417Z,94.60
2018-07-28T00:45:15.576Z,94.80
2018-07-28T00:47:42.728Z,94.60
2018-07-28T00:50:10.092Z,95.30
2018-07-28T00:52:37.650Z,95.20
2018-07-28T00:55:05.223Z,95.50
2018-07-28T00:57:32.382Z,95.80
2018-07-28T00:59:59.543Z,96.20
2018-07-28T01:02:26.731Z,95.80
2018-07-28T01:04:54.942Z,96.20
2018-07-28T01:07:22.151Z,96.30
2018-07-28T01:09:49.439Z,96.10
2018-07-28T01:12:16.652Z,95.90
2018-07-28T01:14:43.847Z,96.10
2018-07-28T01:17:11.057Z,96.30
2018-07-28T01:19:38.242Z,96.30
2018-07-28T01:22:05.455Z,96.30
2018-07-28T01:24:32.949Z,96.40
2018-07-28T01:27:00.295Z,96.10
2018-07-28T01:29:27.475Z,96.50
2018-07-28T01:31:54.700Z,96.60
2018-07-28T01:34:21.904Z,96.90
2018-07-28T01:36:49.121Z,96.80
2018-07-28T01:39:16.315Z,96.70
2018-07-28T01:41:43.884Z,96.80
2018-07-28T01:44:11.131Z,96.90
2018-07-28T01:46:38.619Z,96.80
2018-07-28T01:49:06.386Z,96.60
2018-07-28T01:51:34.019Z,96.60
2018-07-28T01:54:01.224Z,96.80
2018-07-28T01:56:28.519Z,96.50
2018-07-28T02:01:23.452Z,96.70
2018-07-28T02:03:50.648Z,96.80
2018-07-28T02:06:17.839Z,96.70
2018-07-28T02:08:45.072Z,96.60
2018-07-28T02:11:12.262Z,96.70
2018-07-28T02:13:39.859Z,96.60
2018-07-28T02:16:07.219Z,96.70
2018-07-28T02:18:34.418Z,97.00
2018-07-28T02:21:01.675Z,96.90
2018-07-28T02:23:28.886Z,97.00
2018-07-28T02:25:56.085Z,97.30
2018-07-28T02:28:23.300Z,97.70
2018-07-28T02:30:50.503Z,97.90
2018-07-28T02:33:17.970Z,98.20
2018-07-28T02:35:45.232Z,98.30
2018-07-28T02:38:12.465Z,98.50
2018-07-28T02:40:39.699Z,98.90
2018-07-28T02:43:06.928Z,99.00
2018-07-28T02:45:34.203Z,99.00
2018-07-28T02:48:01.416Z,98.80
2018-07-28T02:50:28.639Z,98.80
2018-07-28T02:52:55.841Z,98.50
2018-07-28T02:55:23.057Z,98.10
2018-07-28T02:57:50.255Z,98.20
2018-07-28T03:00:17.493Z,97.90
2018-07-28T03:02:44.670Z,98.10
2018-07-28T03:07:39.144Z,98.10
2018-07-28T03:10:07.046Z,98.60
2018-07-28T03:12:34.304Z,97.90
2018-07-28T03:15:05.052Z,97.90
2018-07-28T03:17:32.259Z,97.80
2018-07-28T03:19:59.456Z,97.70
2018-07-28T03:22:26.652Z,97.90
2018-07-28T03:24:54.230Z,98.10
2018-07-28T03:27:21.443Z,98.50
2018-07-28T03:29:48.631Z,99.00
2018-07-28T03:32:15.819Z,99.00
2018-07-28T03:34:43.004Z,98.90
2018-07-28T03:37:10.207Z,98.70
2018-07-28T03:39:37.491Z,98.70
2018-07-28T03:42:04.696Z,99.20
2018-07-28T03:44:31.886Z,99.10
2018-07-28T03:46:59.075Z,99.10
2018-07-28T03:49:26.266Z,99.60
2018-07-28T03:51:53.546Z,99.60
2018-07-28T03:54:20.743Z,99.70
2018-07-28T03:56:47.934Z,99.80
2018-07-28T03:59:15.132Z,99.50
2018-07-28T04:04:09.532Z,99.20
2018-07-28T04:06:36.767Z,99.60
2018-07-28T04:09:06.527Z,99.80
2018-07-28T04:11:33.747Z,99.90
2018-07-28T04:14:00.952Z,99.90
2018-07-28T04:16:28.139Z,99.90
2018-07-28T04:18:55.322Z,99.90
2018-07-28T04:21:22.511Z,99.90
2018-07-28T04:23:49.703Z,99.90
2018-07-28T04:26:16.907Z,99.90
2018-07-28T04:28:44.099Z,99.90
2018-07-28T04:31:11.278Z,99.90
2018-07-28T04:33:38.452Z,99.90
2018-07-28T04:36:05.655Z,99.90
2018-07-28T04:38:32.840Z,99.90
2018-07-28T04:41:00.047Z,99.90
2018-07-28T04:43:27.228Z,99.90
2018-07-28T04:48:21.646Z,99.90
2018-07-28T04:50:48.843Z,99.90
2018-07-28T04:53:16.076Z,99.90
2018-07-28T04:55:43.270Z,99.90
2018-07-28T04:58:10.453Z,99.90
2018-07-28T05:00:37.686Z,99.90
2018-07-28T05:03:04.860Z,99.90
2018-07-28T05:05:32.028Z,99.90
2018-07-28T05:07:59.199Z,99.90
2018-07-28T05:10:26.363Z,99.90
2018-07-28T05:12:53.626Z,99.90
2018-07-28T05:15:20.820Z,99.90
2018-07-28T05:17:47.990Z,99.90
2018-07-28T05:22:42.357Z,99.90
2018-07-28T05:25:09.527Z,99.90
2018-07-28T05:27:36.699Z,99.90
2018-07-28T05:30:05.609Z,99.90
2018-07-28T05:32:32.799Z,99.80
2018-07-28T05:34:59.989Z,99.40
2018-07-28T05:39:54.788Z,98.90
2018-07-28T05:42:22.007Z,99.90
2018-07-28T05:44:49.334Z,99.90
2018-07-28T05:47:16.506Z,99.90
2018-07-28T05:49:43.659Z,99.10
2018-07-28T05:52:10.831Z,98.70
2018-07-28T05:54:37.982Z,98.00
2018-07-28T05:57:05.175Z,97.90
2018-07-28T05:59:32.343Z,98.40
2018-07-28T06:01:59.783Z,98.60
2018-07-28T06:04:26.980Z,98.40
2018-07-28T06:06:54.176Z,99.40
2018-07-28T06:09:21.368Z,98.60
2018-07-28T06:11:48.562Z,98.70
2018-07-28T06:14:15.777Z,98.80
2018-07-28T06:16:42.961Z,98.80
2018-07-28T06:19:10.179Z,98.40
2018-07-28T06:21:37.376Z,98.40
2018-07-28T06:24:04.714Z,98.70
2018-07-28T06:26:31.917Z,98.40
2018-07-28T06:28:59.103Z,98.40
2018-07-28T06:31:26.299Z,98.50
2018-07-28T06:33:53.595Z,98.20
2018-07-28T06:36:20.776Z,98.40
2018-07-28T06:41:15.278Z,98.90
2018-07-28T06:43:42.464Z,98.70
2018-07-28T06:46:09.742Z,99.30
2018-07-28T06:53:31.854Z,98.20
2018-07-28T06:55:59.135Z,97.50
2018-07-28T06:58:26.380Z,96.90
2018-07-28T07:00:53.567Z,96.60
2018-07-28T07:03:20.822Z,96.60
2018-07-28T07:05:48.043Z,95.30
2018-07-28T07:08:15.297Z,93.90
2018-07-28T07:10:42.512Z,91.50
2018-07-28T07:13:09.726Z,90.90
2018-07-28T07:15:36.926Z,89.30
2018-07-28T07:18:04.136Z,87.20
2018-07-28T07:20:31.364Z,89.10
2018-07-28T07:22:58.641Z,86.30
2018-07-28T07:25:25.855Z,88.70
2018-07-28T07:30:20.445Z,88.10
2018-07-28T07:32:47.878Z,89.10
2018-07-28T07:35:16.413Z,89.50
2018-07-28T07:37:43.736Z,90.70
2018-07-28T07:40:10.906Z,91.80
2018-07-28T07:42:38.122Z,91.20
2018-07-28T07:45:05.571Z,90.70
2018-07-28T07:47:32.864Z,87.30
2018-07-28T07:49:59.987Z,89.70
2018-07-28T07:52:27.179Z,88.20
2018-07-28T07:54:54.391Z,86.50
2018-07-28T07:57:21.634Z,85.80
2018-07-28T07:59:48.816Z,87.50
2018-07-28T08:02:15.987Z,89.00
2018-07-28T08:04:43.209Z,90.50
2018-07-28T08:07:10.383Z,91.30
2018-07-28T08:09:37.567Z,91.50
2018-07-28T08:12:04.956Z,90.50
2018-07-28T08:14:32.134Z,89.60
2018-07-28T08:16:59.294Z,91.00
2018-07-28T08:19:26.459Z,90.70
2018-07-28T08:21:53.631Z,91.60
2018-07-28T08:24:20.843Z,90.90
2018-07-28T08:26:48.006Z,91.30
2018-07-28T08:29:15.197Z,90.90
2018-07-28T08:31:42.364Z,91.60
2018-07-28T08:34:09.518Z,92.20
2018-07-28T08:36:36.779Z,93.60
2018-07-28T08:39:08.383Z,98.60
2018-07-28T08:41:35.551Z,99.90
2018-07-28T08:44:02.731Z,99.90
2018-07-28T08:46:29.923Z,99.90
2018-07-28T08:48:57.245Z,99.90
2018-07-28T08:51:24.355Z,99.90
2018-07-28T08:53:51.512Z,99.90
2018-07-28T08:56:19.027Z,99.90
2018-07-28T08:58:46.327Z,99.90
2018-07-28T09:03:40.832Z,99.90
2018-07-28T09:06:08.027Z,99.90
2018-07-28T09:08:35.266Z,99.90
2018-07-28T09:11:02.548Z,99.90
2018-07-28T09:13:29.763Z,99.90
2018-07-28T09:15:56.938Z,99.90
2018-07-28T09:18:24.160Z,99.90
2018-07-28T09:20:51.471Z,99.90
2018-07-28T09:23:18.708Z,99.90
2018-07-28T09:28:13.067Z,99.90
2018-07-28T09:30:40.437Z,99.90
2018-07-28T09:33:07.668Z,99.90
2018-07-28T09:35:34.983Z,99.90
2018-07-28T09:38:02.275Z,99.90
2018-07-28T09:40:29.643Z,99.90
2018-07-28T09:42:56.982Z,99.90
2018-07-28T09:45:24.186Z,99.90
2018-07-28T09:47:51.416Z,99.90
2018-07-28T09:50:18.791Z,99.90
2018-07-28T09:52:46.079Z,99.90
2018-07-28T09:55:13.249Z,99.90
2018-07-28T09:57:40.570Z,99.90
2018-07-28T10:00:07.906Z,99.90
2018-07-28T10:02:35.168Z,99.90
2018-07-28T10:05:02.584Z,99.90
2018-07-28T10:07:29.943Z,99.90
2018-07-28T10:09:57.269Z,99.90
2018-07-28T10:12:24.567Z,99.90
2018-07-28T10:14:54.280Z,99.90
2018-07-28T10:17:21.582Z,99.90
2018-07-28T10:19:48.866Z,99.90
2018-07-28T10:22:16.069Z,99.90
2018-07-28T10:24:43.447Z,99.90
2018-07-28T10:27:10.647Z,99.90
2018-07-28T10:29:37.879Z,99.90
2018-07-28T10:32:05.135Z,99.90
2018-07-28T10:34:33.092Z,99.90
2018-07-28T10:37:00.347Z,99.90
2018-07-28T10:39:27.534Z,99.90
2018-07-28T10:41:54.728Z,99.90
2018-07-28T10:44:21.912Z,99.90
2018-07-28T10:46:49.134Z,99.10
2018-07-28T10:51:43.590Z,99.50
2018-07-28T10:54:10.912Z,96.80
2018-07-28T10:56:38.169Z,98.70
2018-07-28T10:59:05.492Z,96.10
2018-07-28T11:01:32.794Z,96.30
2018-07-28T11:04:00.053Z,98.10
2018-07-28T11:06:27.234Z,98.80
2018-07-28T11:08:54.596Z,97.10
2018-07-28T11:11:22.056Z,95.60
2018-07-28T11:13:49.427Z,95.70
2018-07-28T11:16:16.698Z,94.90
2018-07-28T11:18:44.125Z,94.90
2018-07-28T11:21:11.431Z,95.10
2018-07-28T11:23:52.022Z,95.30
2018-07-28T11:26:19.319Z,93.50
2018-07-28T11:28:46.459Z,94.10
2018-07-28T11:31:25.168Z,90.70
2018-07-28T11:34:03.800Z,88.70
2018-07-28T11:36:42.506Z,86.20
2018-07-28T11:39:21.015Z,84.30
2018-07-28T11:41:59.547Z,84.40
2018-07-28T11:44:38.295Z,82.20
2018-07-28T11:47:05.506Z,84.20
2018-07-28T11:49:33.322Z,84.40
2018-07-28T11:52:00.523Z,85.30
2018-07-28T11:54:27.714Z,84.40
2018-07-28T11:56:54.913Z,80.60
2018-07-28T11:59:22.091Z,79.80
2018-07-28T12:01:49.303Z,76.50
2018-07-28T12:04:16.479Z,78.30
2018-07-28T12:06:43.717Z,76.30
2018-07-28T12:09:10.922Z,77.70
2018-07-28T12:11:38.184Z,78.70
2018-07-28T12:16:32.859Z,78.60
2018-07-28T12:19:00.055Z,79.30
2018-07-28T12:23:54.686Z,78.30
2018-07-28T12:26:21.875Z,76.50
2018-07-28T12:28:49.095Z,73.00
2018-07-28T12:31:16.327Z,74.10
2018-07-28T12:33:43.519Z,75.20
2018-07-28T12:36:10.825Z,76.50
2018-07-28T12:38:38.247Z,77.00
2018-07-28T12:41:05.463Z,77.00
2018-07-28T12:43:32.654Z,76.50
2018-07-28T12:45:59.840Z,76.70
2018-07-28T12:48:27.051Z,78.00
2018-07-28T12:50:54.247Z,77.00
2018-07-28T12:53:21.434Z,76.80
2018-07-28T12:55:48.643Z,75.50
2018-07-28T12:58:15.823Z,75.50
2018-07-28T13:00:43.027Z,75.20
2018-07-28T13:03:10.194Z,77.60
2018-07-28T13:05:37.379Z,77.60
2018-07-28T13:10:31.855Z,78.30
2018-07-28T13:12:59.012Z,79.90
2018-07-28T13:15:26.212Z,87.20
2018-07-28T13:17:53.455Z,99.90
2018-07-28T13:20:20.651Z,99.90
2018-07-28T13:25:15.053Z,99.90
2018-07-28T13:27:42.227Z,99.90
2018-07-28T13:30:09.435Z,99.90
2018-07-28T13:32:36.804Z,99.90
2018-07-28T13:35:04.058Z,99.90
2018-07-28T13:37:31.239Z,99.90
2018-07-28T13:39:58.431Z,99.90
2018-07-28T13:42:25.596Z,99.90
2018-07-28T13:44:52.759Z,99.90
2018-07-28T13:47:19.924Z,99.90
2018-07-28T13:49:47.124Z,99.90
2018-07-28T13:54:41.478Z,99.90
2018-07-28T13:57:08.651Z,99.90
2018-07-28T13:59:35.819Z,99.90
2018-07-28T14:02:03.043Z,99.90
2018-07-28T14:04:30.199Z,99.90
2018-07-28T14:09:24.607Z,99.90
2018-07-28T14:14:19.131Z,99.90
2018-07-28T14:16:46.369Z,99.90
2018-07-28T14:19:13.504Z,99.90
2018-07-28T14:21:40.695Z,99.90
2018-07-28T14:24:08.032Z,99.90
2018-07-28T14:26:35.214Z,99.90
2018-07-28T14:29:02.427Z,99.90
2018-07-28T14:33:56.854Z,99.90
2018-07-28T14:38:51.300Z,99.90
2018-07-28T14:41:18.470Z,99.90
2018-07-28T14:43:45.679Z,99.90
2018-07-28T14:46:12.893Z,99.90
2018-07-28T14:48:40.179Z,99.90
2018-07-28T14:51:07.392Z,99.90
2018-07-28T14:56:02.046Z,99.90
2018-07-28T14:58:29.260Z,99.90
2018-07-28T15:00:56.596Z,99.90
2018-07-28T15:03:23.774Z,99.90
2018-07-28T15:05:51.024Z,99.90
2018-07-28T15:08:18.247Z,99.90
2018-07-28T15:13:12.645Z,99.90
2018-07-28T15:15:39.836Z,99.90
2018-07-28T15:18:07.147Z,99.90
2018-07-28T15:20:34.327Z,99.90
2018-07-28T15:23:01.538Z,99.90
2018-07-28T15:25:28.718Z,99.90
2018-07-28T15:27:55.875Z,99.90
2018-07-28T15:30:23.067Z,99.90
2018-07-28T15:32:50.301Z,99.90
2018-07-28T15:37:44.662Z,99.90
2018-07-28T15:40:11.826Z,99.90
2018-07-28T15:42:38.984Z,99.90
2018-07-28T15:45:06.219Z,99.90
2018-07-28T15:47:33.382Z,99.90
2018-07-28T15:50:00.547Z,99.90
2018-07-28T15:52:27.819Z,99.90
2018-07-28T15:54:54.991Z,99.90
2018-07-28T15:57:22.165Z,99.90
2018-07-28T15:59:49.371Z,99.90
2018-07-28T16:02:16.570Z,99.90
2018-07-28T16:04:43.761Z,99.90
2018-07-28T16:07:10.967Z,99.90
2018-07-28T16:12:05.585Z,99.90
2018-07-28T16:14:32.774Z,99.90
2018-07-28T16:16:59.955Z,99.90
2018-07-28T16:19:27.220Z,99.90
2018-07-28T16:21:54.542Z,99.90
2018-07-28T16:24:21.719Z,99.90
2018-07-28T16:29:16.179Z,99.90
2018-07-28T16:31:43.400Z,99.90
2018-07-28T16:34:10.592Z,99.90
2018-07-28T16:36:37.760Z,99.90
2018-07-28T16:39:06.791Z,99.90
2018-07-28T16:41:33.964Z,99.90
2018-07-28T16:44:01.139Z,99.90
2018-07-28T16:46:28.417Z,99.90
2018-07-28T16:48:55.619Z,99.90
2018-07-28T16:51:22.802Z,99.90
2018-07-28T16:53:49.978Z,99.90
2018-07-28T16:56:17.155Z,99.90
2018-07-28T16:58:44.402Z,99.90
2018-07-28T17:01:11.575Z,99.90
2018-07-28T17:03:38.796Z,99.90
2018-07-28T17:06:06.040Z,99.90
2018-07-28T17:08:33.260Z,99.90
2018-07-28T17:11:00.483Z,99.90
2018-07-28T17:13:27.692Z,99.90
2018-07-28T17:15:54.902Z,99.90
2018-07-28T17:18:22.645Z,99.90
2018-07-28T17:20:49.863Z,99.90
2018-07-28T17:23:17.054Z,99.90
2018-07-28T17:25:44.279Z,99.90
2018-07-28T17:28:11.488Z,99.90
2018-07-28T17:30:38.774Z,99.90
2018-07-28T17:33:06.610Z,99.90
2018-07-28T17:35:33.863Z,99.90
2018-07-28T17:38:01.118Z,99.90
2018-07-28T17:40:28.421Z,99.90
2018-07-28T17:42:55.666Z,99.90
2018-07-28T17:45:22.904Z,99.90
2018-07-28T17:47:50.090Z,99.90
2018-07-28T17:50:17.303Z,99.90
2018-07-28T17:52:44.523Z,99.90
2018-07-28T17:55:11.731Z,99.90
2018-07-28T18:00:07.472Z,99.90
2018-07-28T18:02:34.690Z,99.90
2018-07-28T18:05:01.895Z,99.90
2018-07-28T18:07:29.076Z,99.90
2018-07-28T18:09:56.215Z,99.90
2018-07-28T18:12:23.374Z,99.90
2018-07-28T18:14:50.539Z,99.90
2018-07-28T18:17:17.695Z,99.90
2018-07-28T18:19:44.864Z,99.90
2018-07-28T18:22:12.160Z,99.90
2018-07-28T18:27:06.581Z,99.90
2018-07-28T18:29:33.731Z,99.90
2018-07-28T18:32:00.934Z,99.90
2018-07-28T18:34:28.408Z,99.90
2018-07-28T18:36:55.553Z,99.90
2018-07-28T18:39:22.714Z,99.90
2018-07-28T18:41:49.928Z,99.90
2018-07-28T18:44:17.029Z,99.90
2018-07-28T18:46:44.196Z,99.90
2018-07-28T18:49:11.365Z,99.90
2018-07-28T18:51:38.553Z,99.90
2018-07-28T18:54:05.717Z,99.90
2018-07-28T18:56:32.924Z,99.90
2018-07-28T18:59:00.085Z,99.90
2018-07-28T19:01:27.279Z,99.90
2018-07-28T19:03:54.533Z,99.90
2018-07-28T19:06:22.619Z,99.90
2018-07-28T19:08:55.717Z,99.90
2018-07-28T19:13:55.866Z,99.90
2018-07-28T19:18:55.983Z,99.90
2018-07-28T19:21:23.254Z,99.90
2018-07-28T19:23:56.276Z,99.90
2018-07-28T19:26:23.595Z,99.90
2018-07-28T19:28:56.758Z,99.90
2018-07-28T19:33:51.247Z,99.90
2018-07-28T19:36:24.214Z,99.90
2018-07-28T19:38:51.431Z,99.90
2018-07-28T19:41:19.019Z,99.90
2018-07-28T19:46:13.427Z,99.90
2018-07-28T19:48:40.631Z,99.90
2018-07-28T19:51:07.838Z,99.90
2018-07-28T19:53:35.033Z,99.90
2018-07-28T19:58:29.496Z,99.90
2018-07-28T20:00:56.777Z,99.90
2018-07-28T20:03:23.962Z,99.90
2018-07-28T20:05:51.157Z,99.90
2018-07-28T20:08:18.395Z,99.90
2018-07-28T20:10:45.574Z,99.90
2018-07-28T20:13:12.791Z,99.90
2018-07-28T20:15:40.048Z,99.90
2018-07-28T20:18:07.238Z,99.90
2018-07-28T20:20:34.430Z,99.90
2018-07-28T20:23:01.669Z,99.90
2018-07-28T20:25:28.874Z,99.90
2018-07-28T20:30:23.308Z,99.90
2018-07-28T20:32:50.583Z,99.90
2018-07-28T20:35:17.811Z,99.90
2018-07-28T20:37:45.029Z,99.90
2018-07-28T20:40:12.251Z,99.90
2018-07-28T20:42:39.703Z,99.90
2018-07-28T20:45:06.899Z,99.90
2018-07-28T20:47:34.222Z,99.90
2018-07-28T20:50:01.451Z,99.90
2018-07-28T20:52:28.651Z,99.90
2018-07-28T20:54:55.848Z,99.90
2018-07-28T20:59:50.259Z,99.90
2018-07-28T21:02:17.643Z,99.90
2018-07-28T21:04:44.832Z,99.90
2018-07-28T21:07:12.048Z,99.90
2018-07-28T21:09:39.368Z,99.90
2018-07-28T21:12:06.608Z,99.90
2018-07-28T21:14:33.790Z,99.90
2018-07-28T21:17:01.003Z,99.90
2018-07-28T21:19:28.187Z,99.90
2018-07-28T21:21:55.396Z,99.90
2018-07-28T21:24:22.594Z,99.90
2018-07-28T21:26:49.794Z,99.90
2018-07-28T21:29:17.003Z,99.90
2018-07-28T21:31:44.186Z,99.90
2018-07-28T21:34:11.392Z,99.90
2018-07-28T21:36:38.592Z,99.90
2018-07-28T21:39:06.990Z,99.90
2018-07-28T21:41:34.278Z,99.90
2018-07-28T21:44:01.479Z,99.90
2018-07-28T21:46:28.662Z,99.90
2018-07-28T21:48:55.838Z,99.90
2018-07-28T21:51:23.011Z,99.90
2018-07-28T21:53:50.230Z,99.90
2018-07-28T21:56:22.028Z,99.90
2018-07-28T21:58:49.243Z,99.90
2018-07-28T22:01:16.439Z,99.90
2018-07-28T22:03:43.626Z,99.90
2018-07-28T22:06:10.822Z,99.90
2018-07-28T22:08:37.979Z,99.90
2018-07-28T22:11:05.227Z,99.90
2018-07-28T22:13:32.544Z,99.90
2018-07-28T22:15:59.971Z,99.90
2018-07-28T22:18:27.286Z,99.90
2018-07-28T22:20:54.471Z,99.90
2018-07-28T22:23:21.679Z,99.90
2018-07-28T22:25:48.867Z,99.90
2018-07-28T22:28:16.215Z,99.90
2018-07-28T22:30:43.375Z,99.90
2018-07-28T22:33:10.648Z,99.90
2018-07-28T22:35:37.940Z,99.90
2018-07-28T22:38:05.271Z,99.90
2018-07-28T22:40:32.454Z,99.90
2018-07-28T22:42:59.628Z,99.90
2018-07-28T22:45:26.894Z,99.90
2018-07-28T22:47:54.086Z,99.90
2018-07-28T22:50:21.262Z,99.90
2018-07-28T22:52:48.420Z,99.90
2018-07-28T22:55:15.723Z,99.90
2018-07-28T22:57:42.913Z,99.90
2018-07-28T23:00:10.102Z,99.90
2018-07-28T23:02:37.361Z,99.90
2018-07-28T23:05:05.052Z,99.90
2018-07-28T23:07:32.223Z,99.90
2018-07-28T23:09:59.447Z,99.90
2018-07-28T23:12:26.630Z,99.90
2018-07-28T23:14:53.811Z,99.90
2018-07-28T23:17:21.008Z,99.90
2018-07-28T23:19:48.195Z,99.90
2018-07-28T23:22:15.390Z,99.90
2018-07-28T23:24:42.580Z,99.90
2018-07-28T23:27:09.763Z,99.90
2018-07-28T23:29:36.975Z,99.90
2018-07-28T23:32:04.179Z,99.90
2018-07-28T23:34:31.408Z,99.90
2018-07-28T23:36:58.679Z,99.90
2018-07-28T23:39:25.985Z,99.90
2018-07-28T23:41:53.236Z,99.90
2018-07-28T23:44:20.571Z,99.90
2018-07-28T23:46:47.932Z,99.90
2018-07-28T23:49:15.116Z,99.90
2018-07-28T23:51:42.372Z,99.90
2018-07-28T23:54:09.723Z,99.90
2018-07-28T23:56:36.939Z,99.90
2018-07-28T23:59:04.333Z,99.90
